Terminal Aerodrome Forecast
Issued by NWS Jackson, KY

Home | Current Version | Previous Version | Text Only | Print | Product List | Glossary On
Versions: 1 2 3 4 5 6 7 8 9 10 11 12 13 14 15 16 17 18 19 20 21 22 23 24
000
FTUS43 KJKL 231800 AAA
TAFLOZ
TAF AMD
KLOZ 231803Z 2318/2418 VRB05KT P6SM VCTS BKN025CB BKN050
      TEMPO 2321/2401 2SM TSRA BR BKN025CB OVC040
     FM240600 00000KT 4SM BR SCT040
     FM240800 00000KT 2SM BR OVC004
     FM240900 00000KT 1/4SM FG VV001
     FM241330 VRB04KT P6SM SCT020 BKN040=

USA.gov is the U.S. government's official web portal to all federal, state and local government web resources and services.